Time;durP1;ratioP1;P1;durP2;ratioP2;P2;SDS_P1;SDS_P2;PMS_P1;PMS_P2;Temp;Humidity;BMP_temperature;BMP_pressure;BME280_temperature;BME280_humidity;BME280_pressure;Samples;Min_cycle;Max_cycle;Signal;HPM_P1;HPM_P2
2022/12/22 03:26:37;;;;;;;;;;;;;;;;;;5114041;28;19914;-68
2022/12/22 03:29:03;;;;;;;;;;;;;;;;;;5113887;28;20276;-68
2022/12/22 03:31:29;;;;;;;;;;;;;;;;;;5114144;28;19937;-69
2022/12/22 03:33:55;;;;;;;;;;;;;;;;;;5113899;28;19912;-69
2022/12/22 03:36:21;;;;;;;;;;;;;;;;;;5113408;28;19916;-69
2022/12/22 03:38:47;;;;;;;;;;;;;;;;;;5112556;28;19947;-68
2022/12/22 03:46:29;;;;;;;;;;;;;;;;;;5114122;28;19914;-69
2022/12/22 03:46:43;;;;;;;;;;;;;;;;;;5113874;28;20044;-69
2022/12/22 03:49:09;;;;;;;;;;;;;;;;;;5113746;28;19953;-69
2022/12/22 03:51:35;;;;;;;;;;;;;;;;;;5113375;28;19918;-69
2022/12/22 03:54:01;;;;;;;;;;;;;;;;;;5113687;28;20345;-69
2022/12/22 03:56:27;;;;;;;;;;;;;;;;;;5113088;28;20275;-69
2022/12/22 03:58:53;;;;;;;;;;;;;;;;;;5113684;28;20221;-69
2022/12/22 04:01:19;;;;;;;;;;;;;;;;;;5113667;28;20368;-69
2022/12/22 04:03:45;;;;;;;;;;;;;;;;;;5115434;28;20020;-68
2022/12/22 04:06:11;;;;;;;;;;;;;;;;;;5117382;28;19955;-69
2022/12/22 04:08:37;;;;;;;;;;;;;;;;;;5117367;28;19908;-69
2022/12/22 04:13:47;;;;;;;;;;;;;;;;;;5117229;28;19999;-69
2022/12/22 04:16:13;;;;;;;;;;;;;;;;;;5117089;28;20356;-68
2022/12/22 04:18:39;;;;;;;;;;;;;;;;;;5116811;28;19914;-68
2022/12/22 04:21:05;;;;;;;;;;;;;;;;;;5116993;28;20432;-69
2022/12/22 04:23:31;;;;;;;;;;;;;;;;;;5117045;28;20364;-69
2022/12/22 04:25:57;;;;;;;;;;;;;;;;;;5116549;28;20359;-69
2022/12/22 04:28:23;;;;;;;;;;;;;;;;;;5116910;28;20307;-69
2022/12/22 04:30:49;;;;;;;;;;;;;;;;;;5116826;28;20267;-69
2022/12/22 04:33:15;;;;;;;;;;;;;;;;;;5116499;28;19912;-69
2022/12/22 04:35:41;;;;;;;;;;;;;;;;;;5116709;28;19919;-69
2022/12/22 04:38:07;;;;;;;;;;;;;;;;;;5116724;28;19915;-69
2022/12/22 04:40:33;;;;;;;;;;;;;;;;;;5116149;28;19933;-69
2022/12/22 04:42:59;;;;;;;;;;;;;;;;;;5116518;28;19931;-69
2022/12/22 04:45:25;;;;;;;;;;;;;;;;;;5116516;28;19933;-69
2022/12/22 04:47:51;;;;;;;;;;;;;;;;;;5116045;28;19908;-69
2022/12/22 04:50:17;;;;;;;;;;;;;;;;;;5116619;28;19911;-69
2022/12/22 04:52:43;;;;;;;;;;;;;;;;;;5116002;28;19950;-69
2022/12/22 04:55:09;;;;;;;;;;;;;;;;;;5116059;28;19927;-69
2022/12/22 04:57:35;;;;;;;;;;;;;;;;;;5116747;28;19916;-69
2022/12/22 05:00:01;;;;;;;;;;;;;;;;;;5115830;28;19915;-69
2022/12/22 05:02:27;;;;;;;;;;;;;;;;;;5116174;28;20383;-69
2022/12/22 05:04:53;;;;;;;;;;;;;;;;;;5116182;28;19908;-69
2022/12/22 05:07:19;;;;;;;;;;;;;;;;;;5115677;28;19931;-69
2022/12/22 05:09:45;;;;;;;;;;;;;;;;;;5116082;28;19912;-69
2022/12/22 05:14:55;;;;;;;;;;;;;;;;;;5115679;28;19957;-69
2022/12/22 05:17:21;;;;;;;;;;;;;;;;;;5115370;28;19916;-69
2022/12/22 05:19:47;;;;;;;;;;;;;;;;;;5115861;28;19912;-69
2022/12/22 05:22:13;;;;;;;;;;;;;;;;;;5114804;28;20012;-69
2022/12/22 05:24:39;;;;;;;;;;;;;;;;;;5114529;28;20276;-69
2022/12/22 05:27:05;;;;;;;;;;;;;;;;;;5115777;28;19965;-69
2022/12/22 05:29:31;;;;;;;;;;;;;;;;;;5115282;28;19998;-69
2022/12/22 05:31:57;;;;;;;;;;;;;;;;;;5114955;28;19912;-70
2022/12/22 05:34:23;;;;;;;;;;;;;;;;;;5115560;28;19907;-69
2022/12/22 05:36:49;;;;;;;;;;;;;;;;;;5113521;28;20356;-69
2022/12/22 05:39:15;;;;;;;;;;;;;;;;;;5114999;28;20458;-69
2022/12/22 05:41:41;;;;;;;;;;;;;;;;;;5115966;27;20344;-69
2022/12/22 05:44:07;;;;;;;;;;;;;;;;;;5113945;28;20355;-69
2022/12/22 05:46:33;;;;;;;;;;;;;;;;;;5114892;27;19907;-69
2022/12/22 05:48:59;;;;;;;;;;;;;;;;;;5114978;28;20375;-69
2022/12/22 05:51:25;;;;;;;;;;;;;;;;;;5114145;28;19916;-69
2022/12/22 05:53:51;;;;;;;;;;;;;;;;;;5114741;28;19915;-69
2022/12/22 05:56:17;;;;;;;;;;;;;;;;;;5111082;28;19919;-69
2022/12/22 05:58:43;;;;;;;;;;;;;;;;;;5112998;28;19930;-69
2022/12/22 06:01:09;;;;;;;;;;;;;;;;;;5112858;28;19907;-69
2022/12/22 06:03:35;;;;;;;;;;;;;;;;;;5112714;28;20425;-69
2022/12/22 06:06:01;;;;;;;;;;;;;;;;;;5112841;28;19907;-69
2022/12/22 06:08:26;;;;;;;;;;;;;;;;;;5112994;28;19962;-69
2022/12/22 06:10:52;;;;;;;;;;;;;;;;;;5113187;28;19908;-69
2022/12/22 06:13:18;;;;;;;;;;;;;;;;;;5114801;28;19952;-68
2022/12/22 06:15:44;;;;;;;;;;;;;;;;;;5113063;28;19919;-69
2022/12/22 06:18:10;;;;;;;;;;;;;;;;;;5112687;28;19972;-69
2022/12/22 06:20:36;;;;;;;;;;;;;;;;;;5110925;28;20280;-68
2022/12/22 06:23:02;;;;;;;;;;;;;;;;;;5112057;27;19911;-69
2022/12/22 06:25:28;;;;;;;;;;;;;;;;;;5109423;28;20206;-71
2022/12/22 06:27:54;;;;;;;;;;;;;;;;;;5112770;28;20006;-70
2022/12/22 06:30:20;;;;;;;;;;;;;;;;;;5112764;28;19915;-67
2022/12/22 06:32:46;;;;;;;;;;;;;;;;;;5099744;27;20053;-68
2022/12/22 06:35:12;;;;;;;;;;;;;;;;;;5109454;28;20066;-69
2022/12/22 06:37:38;;;;;;;;;;;;;;;;;;5111851;28;19908;-70
2022/12/22 06:40:04;;;;;;;;;;;;;;;;;;5112421;28;19943;-71
2022/12/22 06:45:14;;;;;;;;;;;;;;;;;;5112404;28;19976;-70
2022/12/22 06:47:40;;;;;;;;;;;;;;;;;;5112909;28;19912;-71
2022/12/22 06:50:06;;;;;;;;;;;;;;;;;;5112831;28;20279;-72
2022/12/22 06:52:32;;;;;;;;;;;;;;;;;;5112532;28;19961;-70
2022/12/22 06:55:03;;;;;;;;;;;;;;;;;;5110664;28;19927;-75
2022/12/22 06:57:30;;;;;;;;;;;;;;;;;;5109982;28;19924;-69
2022/12/22 07:00:00;;;;;;;;;;;;;;;;;;5105504;28;19958;-68
2022/12/22 07:02:30;;;;;;;;;;;;;;;;;;5111024;28;19947;-69
2022/12/22 07:05:03;;;;;;;;;;;;;;;;;;5109298;28;19947;-68
2022/12/22 07:07:34;;;;;;;;;;;;;;;;;;5110307;28;19958;-68
2022/12/22 07:10:06;;;;;;;;;;;;;;;;;;5111653;28;20383;-69
2022/12/22 07:12:37;;;;;;;;;;;;;;;;;;5111501;28;19915;-68
2022/12/22 07:15:08;;;;;;;;;;;;;;;;;;5109236;28;19914;-69
2022/12/22 07:17:40;;;;;;;;;;;;;;;;;;5111563;28;19908;-70
2022/12/22 07:20:09;;;;;;;;;;;;;;;;;;5111346;28;19912;-71
2022/12/22 07:22:40;;;;;;;;;;;;;;;;;;5109895;28;19912;-68
2022/12/22 07:25:12;;;;;;;;;;;;;;;;;;5112414;28;20037;-68
2022/12/22 07:27:39;;;;;;;;;;;;;;;;;;5111669;28;20233;-69
2022/12/22 07:30:08;;;;;;;;;;;;;;;;;;5112266;28;19942;-68
2022/12/22 07:32:35;;;;;;;;;;;;;;;;;;5111146;28;20321;-70
2022/12/22 07:35:03;;;;;;;;;;;;;;;;;;5111922;28;19908;-68
2022/12/22 07:37:34;;;;;;;;;;;;;;;;;;5106808;28;19928;-70
2022/12/22 07:40:05;;;;;;;;;;;;;;;;;;5116659;28;20275;-69
2022/12/22 07:42:49;;;;;;;;;;;;;;;;;;5114323;28;20336;-69
2022/12/22 07:45:17;;;;;;;;;;;;;;;;;;5115150;28;20344;-67
2022/12/22 07:47:44;;;;;;;;;;;;;;;;;;5117025;27;19908;-68
2022/12/22 07:50:28;;;;;;;;;;;;;;;;;;5114900;28;19908;-68
2022/12/22 07:52:59;;;;;;;;;;;;;;;;;;5115225;28;19915;-68
2022/12/22 07:55:33;;;;;;;;;;;;;;;;;;5114218;27;20346;-68
2022/12/22 07:58:05;;;;;;;;;;;;;;;;;;5115465;28;19985;-67
2022/12/22 08:00:31;;;;;;;;;;;;;;;;;;5114952;28;19928;-68
2022/12/22 08:03:03;;;;;;;;;;;;;;;;;;5109970;28;19912;-68
2022/12/22 08:05:32;;;;;;;;;;;;;;;;;;5113219;28;19911;-67
2022/12/22 08:08:05;;;;;;;;;;;;;;;;;;5114410;28;19912;-67
2022/12/22 08:10:39;;;;;;;;;;;;;;;;;;5112644;28;19957;-70
2022/12/22 08:13:11;;;;;;;;;;;;;;;;;;5114275;28;19962;-68
2022/12/22 08:15:41;;;;;;;;;;;;;;;;;;5112927;28;19955;-67
2022/12/22 08:18:14;;;;;;;;;;;;;;;;;;5114580;28;20390;-67
2022/12/22 08:20:43;;;;;;;;;;;;;;;;;;5113405;28;19986;-68
2022/12/22 08:23:16;;;;;;;;;;;;;;;;;;5112755;28;20316;-67
2022/12/22 08:25:44;;;;;;;;;;;;;;;;;;5112597;28;19916;-69
2022/12/22 08:28:19;;;;;;;;;;;;;;;;;;5113622;28;19951;-69
2022/12/22 08:30:49;;;;;;;;;;;;;;;;;;5114028;28;19911;-68
2022/12/22 08:33:23;;;;;;;;;;;;;;;;;;5114911;28;19919;-68
2022/12/22 08:35:54;;;;;;;;;;;;;;;;;;5111810;28;19927;-69
2022/12/22 08:38:24;;;;;;;;;;;;;;;;;;5108782;27;19932;-70
2022/12/22 08:40:52;;;;;;;;;;;;;;;;;;5113959;28;19912;-69
2022/12/22 08:43:21;;;;;;;;;;;;;;;;;;5113744;28;20003;-69
2022/12/22 08:45:48;;;;;;;;;;;;;;;;;;5112319;28;20276;-70
2022/12/22 08:48:21;;;;;;;;;;;;;;;;;;5110202;27;20419;-69
2022/12/22 08:50:48;;;;;;;;;;;;;;;;;;5114818;28;19960;-67
2022/12/22 08:53:15;;;;;;;;;;;;;;;;;;5113747;28;20287;-70
2022/12/22 08:55:45;;;;;;;;;;;;;;;;;;5114124;28;19951;-69
2022/12/22 08:58:17;;;;;;;;;;;;;;;;;;5114709;28;19908;-70
2022/12/22 09:00:45;;;;;;;;;;;;;;;;;;5109767;28;19912;-68
2022/12/22 09:03:16;;;;;;;;;;;;;;;;;;5113978;28;19939;-68
2022/12/22 09:05:48;;;;;;;;;;;;;;;;;;5113688;28;19912;-72
2022/12/22 09:08:15;;;;;;;;;;;;;;;;;;5104617;28;19947;-71
2022/12/22 09:10:43;;;;;;;;;;;;;;;;;;5112769;28;19912;-75
2022/12/22 09:13:11;;;;;;;;;;;;;;;;;;5112139;28;19934;-72
2022/12/22 09:15:39;;;;;;;;;;;;;;;;;;5110912;28;19916;-72
2022/12/22 09:18:04;;;;;;;;;;;;;;;;;;5112443;28;19908;-73
2022/12/22 09:20:35;;;;;;;;;;;;;;;;;;5113343;28;20265;-73
2022/12/22 09:23:01;;;;;;;;;;;;;;;;;;5113550;28;19915;-73
2022/12/22 09:25:27;;;;;;;;;;;;;;;;;;5112695;28;19908;-71
2022/12/22 09:27:53;;;;;;;;;;;;;;;;;;5113320;28;20004;-70
2022/12/22 09:30:27;;;;;;;;;;;;;;;;;;5112038;28;20291;-71
2022/12/22 09:32:57;;;;;;;;;;;;;;;;;;5109594;28;19915;-70
2022/12/22 09:35:30;;;;;;;;;;;;;;;;;;5105157;28;19916;-74
2022/12/22 09:38:00;;;;;;;;;;;;;;;;;;5108423;27;20374;-69
2022/12/22 09:40:26;;;;;;;;;;;;;;;;;;5111435;28;20316;-70
2022/12/22 09:42:58;;;;;;;;;;;;;;;;;;5113666;28;19999;-70
2022/12/22 09:45:32;;;;;;;;;;;;;;;;;;5113776;28;20072;-69
2022/12/22 09:48:00;;;;;;;;;;;;;;;;;;5113097;28;19907;-69
2022/12/22 09:50:33;;;;;;;;;;;;;;;;;;5112051;27;20415;-69
2022/12/22 09:53:07;;;;;;;;;;;;;;;;;;5113672;28;19915;-70
2022/12/22 09:55:33;;;;;;;;;;;;;;;;;;5111917;28;20294;-69
2022/12/22 09:58:06;;;;;;;;;;;;;;;;;;5113407;28;19908;-68
2022/12/22 10:00:36;;;;;;;;;;;;;;;;;;5112727;27;20383;-67
2022/12/22 10:03:08;;;;;;;;;;;;;;;;;;5112195;28;19915;-69
2022/12/22 10:05:39;;;;;;;;;;;;;;;;;;5110935;28;19914;-69
2022/12/22 10:08:05;;;;;;;;;;;;;;;;;;5110408;28;19911;-69
2022/12/22 10:10:37;;;;;;;;;;;;;;;;;;5111516;28;20380;-70
2022/12/22 10:13:07;;;;;;;;;;;;;;;;;;5113064;27;19977;-69
2022/12/22 10:15:35;;;;;;;;;;;;;;;;;;5113628;27;19915;-71
2022/12/22 10:18:07;;;;;;;;;;;;;;;;;;5111649;28;20321;-72
2022/12/22 10:20:41;;;;;;;;;;;;;;;;;;5112307;28;19946;-70
2022/12/22 10:23:13;;;;;;;;;;;;;;;;;;5112156;28;20409;-70
2022/12/22 10:25:49;;;;;;;;;;;;;;;;;;5112687;28;19908;-69
2022/12/22 10:28:21;;;;;;;;;;;;;;;;;;5111313;28;19915;-70
2022/12/22 10:30:49;;;;;;;;;;;;;;;;;;5111394;28;20577;-70
2022/12/22 10:33:15;;;;;;;;;;;;;;;;;;5111670;28;19911;-69
2022/12/22 10:35:43;;;;;;;;;;;;;;;;;;5111151;28;19920;-70
2022/12/22 10:38:08;;;;;;;;;;;;;;;;;;5111278;28;19907;-71
2022/12/22 10:40:41;;;;;;;;;;;;;;;;;;5111635;28;20581;-71
2022/12/22 10:43:10;;;;;;;;;;;;;;;;;;5111832;28;20356;-70
2022/12/22 10:45:40;;;;;;;;;;;;;;;;;;5109370;28;20015;-70
2022/12/22 10:48:06;;;;;;;;;;;;;;;;;;5112006;28;19918;-70
2022/12/22 10:50:37;;;;;;;;;;;;;;;;;;5111018;28;20279;-71
2022/12/22 10:53:07;;;;;;;;;;;;;;;;;;5110797;28;19908;-71
2022/12/22 10:55:38;;;;;;;;;;;;;;;;;;5110864;28;20360;-71
2022/12/22 10:58:09;;;;;;;;;;;;;;;;;;5111859;28;19939;-71
2022/12/22 11:00:43;;;;;;;;;;;;;;;;;;5111283;28;19916;-71
2022/12/22 11:03:13;;;;;;;;;;;;;;;;;;5110166;28;19911;-71
2022/12/22 11:05:46;;;;;;;;;;;;;;;;;;5091256;28;20748;-71
2022/12/22 11:08:19;;;;;;;;;;;;;;;;;;5103146;28;20363;-70
2022/12/22 11:13:07;;;;;;;;;;;;;;;;;;5084352;27;19923;-69
2022/12/22 11:16:59;;;;;;;;;;;;;;;;;;4416222;27;20081296;-70
2022/12/22 11:20:05;;;;;;;;;;;;;;;;;;4512569;27;17388870;-69
2022/12/22 11:22:34;;;;;;;;;;;;;;;;;;5129554;28;20273;-68
2022/12/22 11:25:04;;;;;;;;;;;;;;;;;;5130964;28;19914;-71
2022/12/22 11:27:33;;;;;;;;;;;;;;;;;;5130459;28;19908;-69
2022/12/22 11:37:25;;;;;;;;;;;;;;;;;;4493385;27;18469052;-75
2022/12/22 11:39:51;;;;;;;;;;;;;;;;;;5136538;27;20371;-70
2022/12/22 11:42:17;;;;;;;;;;;;;;;;;;5150005;27;19911;-72
2022/12/22 11:46:04;;;;;;;;;;;;;;;;;;5090673;28;19924;-71
2022/12/22 11:48:30;;;;;;;;;;;;;;;;;;5088946;28;20002;-71
2022/12/22 11:50:56;;;;;;;;;;;;;;;;;;5090037;28;20526;-71
2022/12/22 11:53:22;;;;;;;;;;;;;;;;;;5089342;28;19915;-71
2022/12/22 11:56:29;;;;;;;;;;;;;;;;;;5090352;27;20291;-74
2022/12/22 11:58:55;;;;;;;;;;;;;;;;;;5089589;28;19999;-75
2022/12/22 12:02:52;;;;;;;;;;;;;;;;;;5088784;27;19916;-78
2022/12/22 12:05:18;;;;;;;;;;;;;;;;;;5089144;28;19912;-72
2022/12/22 12:07:44;;;;;;;;;;;;;;;;;;5088700;28;19946;-72
2022/12/22 12:11:01;;;;;;;;;;;;;;;;;;5087765;27;19916;-72
2022/12/22 12:13:27;;;;;;;;;;;;;;;;;;5088059;28;19919;-70
2022/12/22 12:16:31;;;;;;;;;;;;;;;;;;5108954;27;19920;-71
2022/12/22 12:18:56;;;;;;;;;;;;;;;;;;5107821;28;19912;-73
2022/12/22 12:26:50;;;;;;;;;;;;;;;;;;5150021;27;19915;-72
2022/12/22 12:29:40;;;;;;;;;;;;;;;;;;4536175;27;16711017;-73
2022/12/22 12:32:09;;;;;;;;;;;;;;;;;;5130087;28;20419;-72
2022/12/22 12:34:36;;;;;;;;;;;;;;;;;;5130512;28;19915;-71
2022/12/22 12:37:04;;;;;;;;;;;;;;;;;;5131077;28;19912;-71
2022/12/22 12:40:31;;;;;;;;;;;;;;;;;;4572222;27;15723482;-71
2022/12/22 12:43:05;;;;;;;;;;;;;;;;;;5122730;28;20292;-71
2022/12/22 12:45:31;;;;;;;;;;;;;;;;;;5110310;28;20297;-71
2022/12/22 12:51:45;;;;;;;;;;;;;;;;;;4432286;27;19684229;-70
2022/12/22 13:03:43;;;;;;;;;;;;;;;;;;4583250;27;15111779;-70
2022/12/22 13:06:12;;;;;;;;;;;;;;;;;;5101071;28;20030;-72
2022/12/22 13:08:45;;;;;;;;;;;;;;;;;;5093588;28;20381;-69
2022/12/22 13:11:35;;;;;;;;;;;;;;;;;;4825136;27;8295576;-71
2022/12/22 13:14:02;;;;;;;;;;;;;;;;;;5108362;28;19944;-73
2022/12/22 13:16:29;;;;;;;;;;;;;;;;;;5089873;28;19912;-73
2022/12/22 13:23:27;;;;;;;;;;;;;;;;;;4596417;27;14470268;-70
2022/12/22 13:28:29;;;;;;;;;;;;;;;;;;5131411;27;19918;-70
2022/12/22 13:33:00;;;;;;;;;;;;;;;;;;4662403;27;12743533;-70
2022/12/22 13:40:25;;;;;;;;;;;;;;;;;;4655423;27;12845519;-71
2022/12/22 13:45:16;;;;;;;;;;;;;;;;;;4290210;27;23693457;-70
2022/12/22 13:48:55;;;;;;;;;;;;;;;;;;4491039;27;17617485;-71
2022/12/22 13:51:26;;;;;;;;;;;;;;;;;;5108295;28;20322;-71
2022/12/22 13:56:22;;;;;;;;;;;;;;;;;;4474311;27;18505994;-67
2022/12/22 13:58:54;;;;;;;;;;;;;;;;;;5131194;28;19912;-67
2022/12/22 14:03:37;;;;;;;;;;;;;;;;;;4557054;27;16753410;-67
2022/12/22 14:06:06;;;;;;;;;;;;;;;;;;5152795;27;20332;-66
2022/12/22 14:08:39;;;;;;;;;;;;;;;;;;5152538;27;20341;-66
2022/12/22 14:11:30;;;;;;;;;;;;;;;;;;4601342;27;14990366;-67
2022/12/22 14:13:56;;;;;;;;;;;;;;;;;;5131910;28;19933;-67
2022/12/22 14:20:24;;;;;;;;;;;;;;;;;;4465545;27;19802631;-67
2022/12/22 14:22:50;;;;;;;;;;;;;;;;;;5172790;27;19922;-67
2022/12/22 14:25:37;;;;;;;;;;;;;;;;;;4846951;27;8591679;-66
2022/12/22 14:28:08;;;;;;;;;;;;;;;;;;5152659;27;20006;-66
2022/12/22 14:35:30;;;;;;;;;;;;;;;;;;4842279;27;8143807;-67
2022/12/22 14:38:04;;;;;;;;;;;;;;;;;;5131557;28;19955;-67
2022/12/22 14:40:35;;;;;;;;;;;;;;;;;;5131913;28;19908;-67
2022/12/22 14:43:09;;;;;;;;;;;;;;;;;;5131626;28;19914;-67
2022/12/22 14:45:43;;;;;;;;;;;;;;;;;;5113042;28;19908;-68
2022/12/22 14:48:17;;;;;;;;;;;;;;;;;;5132072;28;19911;-67
2022/12/22 14:50:48;;;;;;;;;;;;;;;;;;5130398;28;20326;-67
2022/12/22 14:53:15;;;;;;;;;;;;;;;;;;5131067;28;19911;-67
2022/12/22 14:55:43;;;;;;;;;;;;;;;;;;5130588;28;20425;-67
2022/12/22 14:58:14;;;;;;;;;;;;;;;;;;5131992;28;19911;-68
2022/12/22 15:00:43;;;;;;;;;;;;;;;;;;5131649;28;19911;-68
2022/12/22 15:03:11;;;;;;;;;;;;;;;;;;5131507;28;19912;-68
2022/12/22 15:05:43;;;;;;;;;;;;;;;;;;5130981;28;19922;-68
2022/12/22 15:08:09;;;;;;;;;;;;;;;;;;5112306;28;19911;-68
2022/12/22 15:10:42;;;;;;;;;;;;;;;;;;5130090;28;20038;-68
2022/12/22 15:13:14;;;;;;;;;;;;;;;;;;5130903;28;19961;-68
2022/12/22 15:15:44;;;;;;;;;;;;;;;;;;5131252;28;19916;-68
2022/12/22 15:18:14;;;;;;;;;;;;;;;;;;5112695;28;19953;-68
2022/12/22 15:20:47;;;;;;;;;;;;;;;;;;5130841;28;20006;-67
2022/12/22 15:23:16;;;;;;;;;;;;;;;;;;5131129;28;20279;-68
2022/12/22 15:25:42;;;;;;;;;;;;;;;;;;5129747;28;19912;-69
2022/12/22 15:28:08;;;;;;;;;;;;;;;;;;5131137;28;19908;-69
2022/12/22 15:30:34;;;;;;;;;;;;;;;;;;5112762;28;20007;-69
2022/12/22 15:33:00;;;;;;;;;;;;;;;;;;5112278;28;20252;-69
2022/12/22 15:35:26;;;;;;;;;;;;;;;;;;5130942;28;19920;-69
2022/12/22 15:37:52;;;;;;;;;;;;;;;;;;5112483;28;19912;-69
2022/12/22 15:40:18;;;;;;;;;;;;;;;;;;5130696;28;19926;-69
2022/12/22 15:42:44;;;;;;;;;;;;;;;;;;5130812;28;19908;-69
2022/12/22 15:45:10;;;;;;;;;;;;;;;;;;5125551;28;19915;-69
2022/12/22 15:47:36;;;;;;;;;;;;;;;;;;5116699;28;19955;-69
2022/12/22 15:50:02;;;;;;;;;;;;;;;;;;5117192;28;19911;-69
2022/12/22 15:52:27;;;;;;;;;;;;;;;;;;5116937;28;19973;-69
2022/12/22 15:54:54;;;;;;;;;;;;;;;;;;5116513;28;19916;-69
2022/12/22 15:57:20;;;;;;;;;;;;;;;;;;5116863;28;19908;-69
2022/12/22 15:59:46;;;;;;;;;;;;;;;;;;5116922;28;19916;-69
2022/12/22 16:02:12;;;;;;;;;;;;;;;;;;5116346;28;19908;-69
2022/12/22 16:04:38;;;;;;;;;;;;;;;;;;5117347;28;20363;-69
2022/12/22 16:07:04;;;;;;;;;;;;;;;;;;5098409;28;19908;-69
2022/12/22 16:09:31;;;;;;;;;;;;;;;;;;5097934;28;20002;-68
2022/12/22 16:11:57;;;;;;;;;;;;;;;;;;5116580;28;19915;-69
2022/12/22 16:14:23;;;;;;;;;;;;;;;;;;5116857;28;20292;-68
2022/12/22 16:16:49;;;;;;;;;;;;;;;;;;5115905;28;19911;-68
2022/12/22 16:19:15;;;;;;;;;;;;;;;;;;5116458;28;19908;-68
2022/12/22 16:21:41;;;;;;;;;;;;;;;;;;5098141;28;19950;-69
2022/12/22 16:24:07;;;;;;;;;;;;;;;;;;5115963;28;19908;-68
2022/12/22 16:26:33;;;;;;;;;;;;;;;;;;5116217;28;19908;-68
2022/12/22 16:28:59;;;;;;;;;;;;;;;;;;5115910;28;19912;-67
2022/12/22 16:31:25;;;;;;;;;;;;;;;;;;5097937;28;19908;-67
2022/12/22 16:33:51;;;;;;;;;;;;;;;;;;5115978;28;19926;-68
2022/12/22 16:36:17;;;;;;;;;;;;;;;;;;5097459;28;19998;-68
2022/12/22 16:38:44;;;;;;;;;;;;;;;;;;5116029;28;19908;-68
2022/12/22 16:41:10;;;;;;;;;;;;;;;;;;5116025;28;20379;-69
2022/12/22 16:43:37;;;;;;;;;;;;;;;;;;5097367;28;19939;-69
2022/12/22 16:46:04;;;;;;;;;;;;;;;;;;5115923;28;19907;-69
2022/12/22 16:48:30;;;;;;;;;;;;;;;;;;5097650;28;20006;-69
2022/12/22 16:50:56;;;;;;;;;;;;;;;;;;5115393;28;19950;-69
2022/12/22 16:53:22;;;;;;;;;;;;;;;;;;5115712;28;19912;-69
2022/12/22 16:55:48;;;;;;;;;;;;;;;;;;5115569;28;19926;-69
2022/12/22 16:58:14;;;;;;;;;;;;;;;;;;5114237;28;19952;-69
2022/12/22 17:00:40;;;;;;;;;;;;;;;;;;5115715;28;19908;-69
2022/12/22 17:03:06;;;;;;;;;;;;;;;;;;5115563;28;19912;-69
2022/12/22 17:05:32;;;;;;;;;;;;;;;;;;5096932;28;19914;-69
2022/12/22 17:07:58;;;;;;;;;;;;;;;;;;5115780;28;19912;-69
2022/12/22 17:10:24;;;;;;;;;;;;;;;;;;5115731;28;19911;-69
2022/12/22 17:12:50;;;;;;;;;;;;;;;;;;5097214;28;19908;-69
2022/12/22 17:15:16;;;;;;;;;;;;;;;;;;5096905;28;20344;-69
2022/12/22 17:17:42;;;;;;;;;;;;;;;;;;5097003;28;19908;-69
2022/12/22 17:20:08;;;;;;;;;;;;;;;;;;5114861;28;19915;-69
2022/12/22 17:22:33;;;;;;;;;;;;;;;;;;5115223;28;20009;-67
2022/12/22 17:24:59;;;;;;;;;;;;;;;;;;5115205;28;19919;-69
2022/12/22 17:27:25;;;;;;;;;;;;;;;;;;5096458;28;20010;-69
2022/12/22 17:29:51;;;;;;;;;;;;;;;;;;5096930;28;19907;-68
2022/12/22 17:32:17;;;;;;;;;;;;;;;;;;5096435;28;19917;-68
2022/12/22 17:34:43;;;;;;;;;;;;;;;;;;5114793;28;19920;-68
2022/12/22 17:37:09;;;;;;;;;;;;;;;;;;5096654;28;19919;-67
2022/12/22 17:39:37;;;;;;;;;;;;;;;;;;5114482;28;19914;-67
2022/12/22 17:42:03;;;;;;;;;;;;;;;;;;5115059;28;20002;-67
2022/12/22 17:44:29;;;;;;;;;;;;;;;;;;5114857;28;19951;-67
2022/12/22 17:46:55;;;;;;;;;;;;;;;;;;5114383;28;20268;-68
2022/12/22 17:49:21;;;;;;;;;;;;;;;;;;5114788;28;20275;-68
2022/12/22 17:51:47;;;;;;;;;;;;;;;;;;5114599;28;19912;-68
2022/12/22 17:54:13;;;;;;;;;;;;;;;;;;5114389;28;19912;-68
2022/12/22 17:56:39;;;;;;;;;;;;;;;;;;5114671;28;19919;-68
2022/12/22 17:59:05;;;;;;;;;;;;;;;;;;5114642;28;19912;-68
2022/12/22 18:01:31;;;;;;;;;;;;;;;;;;5114634;28;19999;-69
2022/12/22 18:03:56;;;;;;;;;;;;;;;;;;5114609;28;19973;-69
2022/12/22 18:06:22;;;;;;;;;;;;;;;;;;5114469;28;20079;-69
2022/12/22 18:08:48;;;;;;;;;;;;;;;;;;5113839;28;19930;-69
2022/12/22 18:11:14;;;;;;;;;;;;;;;;;;5114595;28;19915;-68
2022/12/22 18:13:40;;;;;;;;;;;;;;;;;;5096138;28;20287;-69
2022/12/22 18:16:06;;;;;;;;;;;;;;;;;;5113917;28;19912;-69
2022/12/22 18:18:32;;;;;;;;;;;;;;;;;;5114345;28;19952;-69
2022/12/22 18:20:58;;;;;;;;;;;;;;;;;;5096003;28;19994;-68
2022/12/22 18:23:24;;;;;;;;;;;;;;;;;;5095646;28;19911;-69
2022/12/22 18:25:50;;;;;;;;;;;;;;;;;;5095951;28;19953;-69
2022/12/22 18:28:16;;;;;;;;;;;;;;;;;;5113347;28;19918;-69
2022/12/22 18:30:42;;;;;;;;;;;;;;;;;;5094992;28;19915;-68
2022/12/22 18:33:08;;;;;;;;;;;;;;;;;;5113986;28;19911;-68
2022/12/22 18:35:34;;;;;;;;;;;;;;;;;;5095633;28;19950;-68
2022/12/22 18:38:00;;;;;;;;;;;;;;;;;;5114017;28;19908;-68
2022/12/22 18:40:26;;;;;;;;;;;;;;;;;;5114084;28;19915;-68
2022/12/22 18:42:52;;;;;;;;;;;;;;;;;;5113740;28;19953;-68
2022/12/22 18:45:18;;;;;;;;;;;;;;;;;;5113949;28;20302;-67
2022/12/22 18:47:44;;;;;;;;;;;;;;;;;;5113912;28;19915;-68
2022/12/22 18:50:09;;;;;;;;;;;;;;;;;;5095480;28;20398;-68
2022/12/22 18:52:36;;;;;;;;;;;;;;;;;;5114142;28;20426;-68
2022/12/22 18:55:02;;;;;;;;;;;;;;;;;;5114004;28;19916;-67
2022/12/22 18:57:28;;;;;;;;;;;;;;;;;;5113758;28;20440;-67
2022/12/22 18:59:53;;;;;;;;;;;;;;;;;;5095704;28;19908;-68
2022/12/22 19:02:20;;;;;;;;;;;;;;;;;;5113816;28;19919;-67
2022/12/22 19:04:45;;;;;;;;;;;;;;;;;;5113509;28;20303;-68
2022/12/22 19:07:11;;;;;;;;;;;;;;;;;;5113997;28;19915;-68
2022/12/22 19:09:38;;;;;;;;;;;;;;;;;;5113867;28;20343;-68
2022/12/22 19:12:03;;;;;;;;;;;;;;;;;;5113374;28;19977;-68
2022/12/22 19:14:31;;;;;;;;;;;;;;;;;;5113782;28;19920;-68
2022/12/22 19:16:57;;;;;;;;;;;;;;;;;;5113799;28;20279;-68
2022/12/22 19:19:23;;;;;;;;;;;;;;;;;;5113381;28;19915;-68
2022/12/22 19:21:49;;;;;;;;;;;;;;;;;;5117035;28;19912;-68
2022/12/22 19:24:15;;;;;;;;;;;;;;;;;;5117561;28;20429;-68
2022/12/22 19:26:41;;;;;;;;;;;;;;;;;;5117103;28;19908;-68
2022/12/22 19:29:08;;;;;;;;;;;;;;;;;;5099203;28;19933;-69
2022/12/22 19:31:34;;;;;;;;;;;;;;;;;;5117516;28;19908;-69
2022/12/22 19:34:00;;;;;;;;;;;;;;;;;;5098382;28;20398;-68
2022/12/22 19:36:26;;;;;;;;;;;;;;;;;;5117258;28;19961;-68
2022/12/22 19:38:54;;;;;;;;;;;;;;;;;;5116953;28;19998;-69
2022/12/22 19:41:20;;;;;;;;;;;;;;;;;;5117208;28;19908;-68
2022/12/22 19:43:46;;;;;;;;;;;;;;;;;;5117171;28;20261;-68
2022/12/22 19:46:12;;;;;;;;;;;;;;;;;;5116812;28;19915;-69
2022/12/22 19:48:38;;;;;;;;;;;;;;;;;;5117151;28;19943;-68
2022/12/22 19:51:04;;;;;;;;;;;;;;;;;;5117396;28;19915;-68
2022/12/22 19:53:30;;;;;;;;;;;;;;;;;;5116549;28;19916;-68
2022/12/22 19:55:56;;;;;;;;;;;;;;;;;;5116985;28;19908;-68
2022/12/22 19:58:22;;;;;;;;;;;;;;;;;;5116935;28;19943;-68
2022/12/22 20:00:48;;;;;;;;;;;;;;;;;;5116397;28;19908;-68
2022/12/22 20:03:14;;;;;;;;;;;;;;;;;;5098760;28;19957;-68
2022/12/22 20:05:40;;;;;;;;;;;;;;;;;;5116731;28;19919;-68
2022/12/22 20:08:06;;;;;;;;;;;;;;;;;;5116403;28;19916;-68
2022/12/22 20:10:32;;;;;;;;;;;;;;;;;;5116644;28;19908;-68
2022/12/22 20:12:58;;;;;;;;;;;;;;;;;;5098401;28;19908;-68
2022/12/22 20:15:24;;;;;;;;;;;;;;;;;;5116181;28;19922;-68
2022/12/22 20:17:50;;;;;;;;;;;;;;;;;;5098277;28;20356;-67
2022/12/22 20:20:16;;;;;;;;;;;;;;;;;;5116562;28;20406;-67
2022/12/22 20:22:42;;;;;;;;;;;;;;;;;;5116139;28;20042;-67
2022/12/22 20:25:08;;;;;;;;;;;;;;;;;;5116363;28;19994;-68
2022/12/22 20:27:34;;;;;;;;;;;;;;;;;;5116367;28;19907;-68
2022/12/22 20:29:59;;;;;;;;;;;;;;;;;;5115961;28;19908;-68
2022/12/22 20:32:25;;;;;;;;;;;;;;;;;;5096696;28;19915;-68
2022/12/22 20:34:51;;;;;;;;;;;;;;;;;;5115529;28;19927;-68
2022/12/22 20:37:17;;;;;;;;;;;;;;;;;;5114895;28;19951;-68
2022/12/22 20:39:43;;;;;;;;;;;;;;;;;;5115991;28;20368;-68
2022/12/22 20:42:09;;;;;;;;;;;;;;;;;;5115830;28;20021;-68
2022/12/22 20:44:35;;;;;;;;;;;;;;;;;;5116281;28;20002;-68
2022/12/22 20:47:01;;;;;;;;;;;;;;;;;;5096884;28;19957;-68
2022/12/22 20:49:27;;;;;;;;;;;;;;;;;;5115234;28;19908;-69
2022/12/22 20:51:53;;;;;;;;;;;;;;;;;;5115036;28;20431;-68
2022/12/22 20:54:19;;;;;;;;;;;;;;;;;;5115528;28;19926;-68
2022/12/22 20:56:45;;;;;;;;;;;;;;;;;;5115287;28;19908;-68
2022/12/22 20:59:11;;;;;;;;;;;;;;;;;;5097387;28;19908;-68
2022/12/22 21:01:37;;;;;;;;;;;;;;;;;;5115463;28;19908;-68
2022/12/22 21:04:03;;;;;;;;;;;;;;;;;;5096816;28;19908;-68
2022/12/22 21:06:29;;;;;;;;;;;;;;;;;;5115611;28;20366;-68
2022/12/22 21:08:55;;;;;;;;;;;;;;;;;;5115507;28;19914;-68
2022/12/22 21:11:21;;;;;;;;;;;;;;;;;;5115305;28;19915;-68
2022/12/22 21:13:47;;;;;;;;;;;;;;;;;;5097326;28;19912;-68
2022/12/22 21:16:13;;;;;;;;;;;;;;;;;;5115438;28;19912;-68
2022/12/22 21:18:39;;;;;;;;;;;;;;;;;;5115047;28;19915;-68
2022/12/22 21:21:05;;;;;;;;;;;;;;;;;;5115569;28;19915;-68
2022/12/22 21:23:31;;;;;;;;;;;;;;;;;;5115639;28;20370;-69
2022/12/22 21:25:57;;;;;;;;;;;;;;;;;;5114808;28;20264;-68
2022/12/22 21:28:23;;;;;;;;;;;;;;;;;;5097105;28;19908;-68
2022/12/22 21:30:49;;;;;;;;;;;;;;;;;;5096894;28;19965;-68